createdAt,value
2023-08-12T00:00:49.875Z,30.70
2023-08-12T00:01:49.830Z,30.50
2023-08-12T00:02:49.836Z,29.20
2023-08-12T00:03:49.946Z,28.50
2023-08-12T00:04:49.831Z,29.00
2023-08-12T00:05:49.856Z,27.00
2023-08-12T00:06:49.832Z,28.10
2023-08-12T00:07:49.846Z,29.00
2023-08-12T00:08:49.827Z,30.90
2023-08-12T00:09:49.829Z,29.90
2023-08-12T00:10:49.833Z,30.20
2023-08-12T00:11:49.832Z,28.20
2023-08-12T00:12:49.860Z,28.30
2023-08-12T00:13:49.836Z,27.20
2023-08-12T00:14:49.845Z,27.60
2023-08-12T00:15:49.859Z,25.40
2023-08-12T00:16:49.842Z,26.20
2023-08-12T00:17:49.862Z,27.20
2023-08-12T00:18:49.847Z,25.50
2023-08-12T00:19:49.846Z,24.50
2023-08-12T00:20:49.850Z,24.70
2023-08-12T00:21:49.849Z,26.60
2023-08-12T00:22:49.853Z,27.40
2023-08-12T00:23:49.909Z,26.90
2023-08-12T00:24:49.854Z,28.60
2023-08-12T00:25:49.859Z,26.10
2023-08-12T00:26:49.857Z,26.60
2023-08-12T00:27:49.858Z,25.80
2023-08-12T00:28:49.863Z,25.70
2023-08-12T00:29:49.873Z,26.90
2023-08-12T00:30:49.889Z,27.10
2023-08-12T00:31:49.862Z,26.90
2023-08-12T00:32:49.900Z,25.70
2023-08-12T00:33:49.867Z,24.80
2023-08-12T00:34:49.872Z,25.80
2023-08-12T00:35:49.875Z,25.10
2023-08-12T00:36:49.893Z,24.80
2023-08-12T00:37:49.878Z,25.00
2023-08-12T00:38:49.875Z,26.80
2023-08-12T00:39:50.419Z,24.60
2023-08-12T00:40:49.882Z,24.10
2023-08-12T00:41:49.885Z,23.70
2023-08-12T00:42:49.881Z,25.60
2023-08-12T00:43:49.881Z,25.90
2023-08-12T00:44:49.886Z,26.00
2023-08-12T00:45:49.886Z,26.60
2023-08-12T00:46:49.954Z,26.30
2023-08-12T00:47:49.940Z,26.90
2023-08-12T00:48:49.892Z,26.20
2023-08-12T00:49:49.894Z,26.00
2023-08-12T00:50:49.894Z,25.90
2023-08-12T00:51:49.890Z,24.80
2023-08-12T00:52:49.905Z,25.90
2023-08-12T00:53:49.896Z,26.40
2023-08-12T00:54:49.901Z,27.60
2023-08-12T00:55:49.933Z,28.40
2023-08-12T00:56:49.905Z,28.90
2023-08-12T00:57:49.908Z,28.80
2023-08-12T00:58:49.922Z,28.20
2023-08-12T00:59:49.912Z,29.40
2023-08-12T01:00:49.932Z,30.30
2023-08-12T01:01:49.958Z,30.90
2023-08-12T01:02:50.135Z,29.00
2023-08-12T01:03:49.999Z,29.40
2023-08-12T01:04:49.916Z,30.10
2023-08-12T01:05:49.921Z,29.00
2023-08-12T01:06:49.936Z,28.30
2023-08-12T01:07:49.929Z,29.00
2023-08-12T01:08:49.922Z,28.70
2023-08-12T01:09:49.928Z,29.60
2023-08-12T01:10:49.929Z,28.70
2023-08-12T01:11:49.954Z,28.70
2023-08-12T01:12:49.938Z,28.00
2023-08-12T01:13:49.933Z,28.30
2023-08-12T01:14:49.937Z,27.90
2023-08-12T01:15:49.942Z,26.80
2023-08-12T01:16:49.991Z,24.70
2023-08-12T01:17:49.978Z,27.60
2023-08-12T01:18:49.977Z,27.60
2023-08-12T01:19:49.948Z,26.70
2023-08-12T01:20:49.962Z,24.50
2023-08-12T01:21:49.947Z,27.40
2023-08-12T01:22:49.957Z,25.70
2023-08-12T01:23:49.955Z,27.00
2023-08-12T01:24:49.950Z,25.00
2023-08-12T01:25:49.957Z,25.80
2023-08-12T01:26:49.960Z,26.90
2023-08-12T01:27:49.979Z,25.70
2023-08-12T01:28:49.960Z,25.30
2023-08-12T01:29:49.959Z,25.50
2023-08-12T01:30:50.017Z,25.40
2023-08-12T01:31:49.963Z,24.40
2023-08-12T01:32:50.051Z,24.80
2023-08-12T01:33:49.966Z,24.80
2023-08-12T01:34:49.970Z,23.30
2023-08-12T01:35:49.970Z,21.90
2023-08-12T01:36:49.990Z,23.10
2023-08-12T01:37:49.974Z,22.00
2023-08-12T01:38:49.972Z,23.20
2023-08-12T01:39:49.974Z,22.80
2023-08-12T01:40:49.976Z,21.80
2023-08-12T01:41:49.978Z,22.40
2023-08-12T01:42:49.983Z,22.70
2023-08-12T01:43:50.004Z,22.60
2023-08-12T01:44:49.982Z,21.60
2023-08-12T01:45:50.013Z,21.70
2023-08-12T01:46:49.992Z,22.40
2023-08-12T01:47:50.054Z,23.10
2023-08-12T01:48:49.990Z,22.40
2023-08-12T01:49:50.018Z,20.70
2023-08-12T01:50:50.001Z,21.50
2023-08-12T01:51:49.994Z,21.10
2023-08-12T01:52:49.994Z,21.50
2023-08-12T01:53:50.003Z,19.20
2023-08-12T01:54:50.030Z,20.40
2023-08-12T01:55:50.061Z,20.50
2023-08-12T01:56:50.002Z,18.50
2023-08-12T01:57:50.004Z,18.40
2023-08-12T01:58:50.006Z,18.30
2023-08-12T01:59:50.023Z,19.90
2023-08-12T02:00:50.016Z,19.90
2023-08-12T02:01:50.057Z,19.70
2023-08-12T02:02:50.056Z,20.00
2023-08-12T02:03:50.094Z,21.00
2023-08-12T02:04:50.014Z,22.30
2023-08-12T02:05:50.015Z,23.20
2023-08-12T02:06:50.018Z,23.50
2023-08-12T02:07:50.056Z,22.40
2023-08-12T02:08:50.026Z,22.70
2023-08-12T02:09:50.036Z,22.80
2023-08-12T02:10:50.034Z,21.00
2023-08-12T02:11:50.029Z,20.60
2023-08-12T02:12:50.031Z,20.40
2023-08-12T02:13:50.031Z,19.70
2023-08-12T02:14:50.034Z,20.20
2023-08-12T02:15:50.128Z,21.40
2023-08-12T02:16:50.041Z,20.80
2023-08-12T02:17:50.084Z,20.40
2023-08-12T02:18:50.044Z,20.50
2023-08-12T02:19:50.044Z,21.00
2023-08-12T02:20:50.044Z,19.90
2023-08-12T02:21:50.055Z,19.70
2023-08-12T02:22:50.044Z,18.30
2023-08-12T02:23:50.044Z,18.20
2023-08-12T02:24:50.054Z,17.00
2023-08-12T02:25:50.055Z,18.10
2023-08-12T02:26:50.054Z,18.00
2023-08-12T02:27:50.051Z,19.10
2023-08-12T02:28:50.060Z,18.30
2023-08-12T02:29:50.081Z,17.00
2023-08-12T02:30:50.075Z,17.90
2023-08-12T02:31:50.132Z,19.30
2023-08-12T02:32:50.082Z,18.30
2023-08-12T02:33:50.070Z,17.40
2023-08-12T02:34:50.072Z,16.50
2023-08-12T02:35:50.072Z,17.20
2023-08-12T02:36:50.081Z,16.10
2023-08-12T02:37:50.070Z,16.80
2023-08-12T02:38:50.072Z,17.50
2023-08-12T02:39:50.072Z,17.40
2023-08-12T02:40:50.072Z,17.50
2023-08-12T02:41:50.090Z,17.70
2023-08-12T02:42:50.076Z,17.60
2023-08-12T02:43:50.094Z,18.30
2023-08-12T02:44:50.111Z,17.00
2023-08-12T02:45:50.113Z,18.00
2023-08-12T02:46:50.086Z,18.50
2023-08-12T02:47:50.136Z,17.40
2023-08-12T02:48:50.088Z,17.20
2023-08-12T02:49:50.092Z,17.20
2023-08-12T02:50:50.088Z,16.90
2023-08-12T02:51:50.097Z,16.90
2023-08-12T02:52:50.093Z,17.70
2023-08-12T02:53:50.272Z,16.50
2023-08-12T02:54:50.099Z,18.00
2023-08-12T02:55:50.104Z,17.20
2023-08-12T02:56:50.105Z,17.20
2023-08-12T02:57:50.116Z,18.30
2023-08-12T02:58:50.127Z,17.20
2023-08-12T02:59:50.101Z,18.10
2023-08-12T03:00:50.102Z,18.20
2023-08-12T03:01:50.112Z,18.50
2023-08-12T03:02:50.221Z,17.60
2023-08-12T03:03:50.133Z,17.70
2023-08-12T03:04:50.122Z,17.60
2023-08-12T03:05:50.112Z,17.70
2023-08-12T03:06:50.122Z,18.60
2023-08-12T03:07:50.116Z,18.60
2023-08-12T03:08:50.116Z,19.60
2023-08-12T03:09:50.124Z,19.30
2023-08-12T03:10:50.118Z,20.10
2023-08-12T03:11:50.143Z,19.50
2023-08-12T03:12:50.121Z,18.80
2023-08-12T03:13:50.130Z,19.80
2023-08-12T03:14:50.127Z,19.40
2023-08-12T03:15:50.150Z,19.10
2023-08-12T03:16:50.130Z,19.30
2023-08-12T03:17:50.149Z,19.80
2023-08-12T03:18:50.317Z,21.50
2023-08-12T03:19:50.152Z,21.00
2023-08-12T03:20:50.134Z,21.40
2023-08-12T03:21:50.139Z,21.70
2023-08-12T03:22:50.143Z,21.90
2023-08-12T03:23:50.141Z,22.40
2023-08-12T03:24:50.139Z,23.70
2023-08-12T03:25:50.174Z,23.00
2023-08-12T03:26:50.154Z,22.60
2023-08-12T03:27:50.144Z,22.50
2023-08-12T03:28:50.166Z,23.00
2023-08-12T03:29:50.160Z,21.70
2023-08-12T03:30:50.157Z,21.80
2023-08-12T03:31:50.169Z,21.80
2023-08-12T03:32:50.203Z,22.20
2023-08-12T03:33:50.165Z,22.00
2023-08-12T03:34:50.157Z,21.10
2023-08-12T03:35:50.200Z,20.70
2023-08-12T03:36:50.163Z,22.60
2023-08-12T03:37:50.175Z,21.60
2023-08-12T03:38:50.161Z,21.50
2023-08-12T03:39:50.166Z,21.60
2023-08-12T03:40:50.168Z,19.90
2023-08-12T03:41:50.171Z,21.40
2023-08-12T03:42:50.171Z,21.10
2023-08-12T03:43:50.174Z,21.20
2023-08-12T03:44:50.174Z,20.60
2023-08-12T03:45:50.180Z,19.60
2023-08-12T03:46:50.188Z,19.70
2023-08-12T03:47:50.202Z,20.90
2023-08-12T03:48:50.200Z,19.00
2023-08-12T03:49:50.178Z,19.80
2023-08-12T03:50:50.181Z,19.50
2023-08-12T03:51:50.210Z,19.00
2023-08-12T03:52:50.187Z,19.40
2023-08-12T03:53:50.191Z,19.60
2023-08-12T03:54:50.219Z,20.70
2023-08-12T03:55:50.198Z,19.80
2023-08-12T03:56:50.187Z,18.80
2023-08-12T03:57:50.194Z,19.30
2023-08-12T03:58:50.194Z,18.60
2023-08-12T03:59:50.196Z,18.50
2023-08-12T04:00:50.221Z,19.20
2023-08-12T04:01:50.197Z,19.50
2023-08-12T04:02:50.281Z,20.40
2023-08-12T04:03:50.225Z,19.00
2023-08-12T04:04:50.204Z,19.80
2023-08-12T04:05:50.205Z,18.10
2023-08-12T04:06:50.209Z,18.40
2023-08-12T04:07:50.243Z,18.80
2023-08-12T04:08:50.210Z,17.90
2023-08-12T04:09:50.208Z,17.80
2023-08-12T04:10:50.208Z,18.10
2023-08-12T04:11:50.215Z,17.80
2023-08-12T04:12:50.215Z,19.50
2023-08-12T04:13:50.221Z,19.20
2023-08-12T04:14:50.224Z,18.70
2023-08-12T04:15:50.223Z,18.70
2023-08-12T04:16:50.246Z,18.80
2023-08-12T04:17:50.276Z,17.40
2023-08-12T04:18:50.235Z,18.40
2023-08-12T04:19:50.227Z,18.30
2023-08-12T04:20:50.284Z,17.70
2023-08-12T04:21:50.231Z,18.50
2023-08-12T04:22:50.375Z,18.40
2023-08-12T04:23:50.246Z,18.40
2023-08-12T04:24:50.234Z,19.40
2023-08-12T04:25:50.258Z,19.20
2023-08-12T04:26:50.231Z,19.70
2023-08-12T04:27:50.245Z,18.20
2023-08-12T04:28:50.235Z,18.80
2023-08-12T04:29:50.240Z,18.90
2023-08-12T04:30:50.253Z,19.50
2023-08-12T04:31:50.258Z,18.40
2023-08-12T04:32:50.298Z,18.40
2023-08-12T04:33:50.251Z,17.70
2023-08-12T04:34:50.248Z,18.20
2023-08-12T04:35:50.256Z,17.80
2023-08-12T04:36:50.252Z,18.10
2023-08-12T04:37:50.250Z,16.60
2023-08-12T04:38:50.250Z,17.30
2023-08-12T04:39:50.293Z,17.20
2023-08-12T04:40:50.281Z,17.30
2023-08-12T04:41:50.266Z,17.40
2023-08-12T04:42:50.268Z,16.70
2023-08-12T04:43:50.260Z,16.30
2023-08-12T04:44:50.274Z,15.50
2023-08-12T04:45:50.268Z,16.10
2023-08-12T04:46:50.266Z,16.60
2023-08-12T04:47:50.313Z,15.50
2023-08-12T04:48:50.268Z,16.20
2023-08-12T04:49:50.271Z,15.80
2023-08-12T04:50:50.274Z,15.70
2023-08-12T04:51:50.275Z,15.90
2023-08-12T04:52:50.274Z,16.10
2023-08-12T04:53:50.280Z,15.60
2023-08-12T04:54:50.281Z,15.40
2023-08-12T04:55:50.299Z,16.50
2023-08-12T04:56:50.278Z,16.00
2023-08-12T04:57:50.286Z,16.70
2023-08-12T04:58:50.284Z,16.80
2023-08-12T04:59:50.293Z,15.80
2023-08-12T05:00:50.305Z,15.90
2023-08-12T05:02:03.504Z,15.60
2023-08-12T05:02:50.519Z,16.00
2023-08-12T05:03:50.291Z,15.80
2023-08-12T05:04:50.305Z,16.20
2023-08-12T05:05:50.295Z,16.30
2023-08-12T05:06:50.294Z,16.40
2023-08-12T05:07:50.309Z,16.60
2023-08-12T05:08:50.297Z,16.00
2023-08-12T05:09:50.301Z,16.60
2023-08-12T05:10:50.304Z,16.10
2023-08-12T05:11:50.325Z,16.10
2023-08-12T05:12:50.305Z,15.60
2023-08-12T05:13:50.303Z,16.10
2023-08-12T05:14:50.306Z,16.50
2023-08-12T05:15:50.422Z,15.70
2023-08-12T05:16:50.322Z,16.20
2023-08-12T05:17:50.346Z,15.10
2023-08-12T05:18:50.313Z,14.50
2023-08-12T05:19:50.311Z,15.20
2023-08-12T05:20:50.317Z,15.10
2023-08-12T05:21:50.319Z,15.70
2023-08-12T05:22:50.326Z,15.60
2023-08-12T05:23:50.321Z,15.10
2023-08-12T05:24:50.324Z,15.10
2023-08-12T05:25:50.858Z,14.40
2023-08-12T05:26:50.325Z,15.20
2023-08-12T05:27:50.342Z,15.00
2023-08-12T05:28:50.326Z,14.30
2023-08-12T05:29:50.347Z,14.40
2023-08-12T05:30:50.360Z,14.70
2023-08-12T05:31:50.374Z,14.70
2023-08-12T05:32:50.390Z,13.80
2023-08-12T05:33:50.360Z,15.20
2023-08-12T05:34:50.347Z,14.60
2023-08-12T05:35:50.336Z,14.20
2023-08-12T05:36:50.344Z,14.50
2023-08-12T05:37:50.342Z,15.20
2023-08-12T05:38:50.345Z,15.80
2023-08-12T05:39:50.352Z,15.30
2023-08-12T05:40:50.351Z,15.60
2023-08-12T05:41:50.350Z,14.50
2023-08-12T05:42:50.349Z,15.30
2023-08-12T05:43:50.380Z,14.80
2023-08-12T05:44:50.369Z,16.10
2023-08-12T05:45:50.399Z,15.60
2023-08-12T05:46:50.360Z,16.40
2023-08-12T05:47:50.418Z,15.80
2023-08-12T05:48:50.364Z,16.30
2023-08-12T05:49:50.360Z,16.40
2023-08-12T05:50:50.370Z,16.10
2023-08-12T05:51:50.360Z,15.40
2023-08-12T05:52:50.383Z,15.90
2023-08-12T05:53:50.366Z,16.40
2023-08-12T05:54:50.381Z,15.60
2023-08-12T05:55:50.382Z,16.00
2023-08-12T05:56:50.370Z,15.90
2023-08-12T05:57:50.374Z,16.10
2023-08-12T05:58:50.384Z,16.30
2023-08-12T05:59:50.392Z,16.40
2023-08-12T06:00:50.380Z,16.20
2023-08-12T06:01:50.381Z,15.10
2023-08-12T06:02:52.719Z,15.20
2023-08-12T06:03:50.403Z,15.30
2023-08-12T06:04:50.379Z,15.60
2023-08-12T06:05:50.407Z,15.60
2023-08-12T06:06:50.395Z,15.30
2023-08-12T06:07:50.382Z,15.70
2023-08-12T06:08:50.384Z,15.70
2023-08-12T06:09:50.385Z,14.80
2023-08-12T06:10:50.395Z,15.30
2023-08-12T06:11:50.388Z,15.40
2023-08-12T06:12:50.390Z,15.40
2023-08-12T06:13:50.441Z,15.40
2023-08-12T06:14:50.397Z,15.50
2023-08-12T06:15:50.436Z,15.90
2023-08-12T06:16:50.398Z,16.30
2023-08-12T06:17:50.433Z,15.50
2023-08-12T06:18:50.453Z,16.30
2023-08-12T06:19:50.400Z,15.70
2023-08-12T06:20:50.402Z,16.10
2023-08-12T06:21:50.402Z,16.30
2023-08-12T06:22:50.409Z,15.90
2023-08-12T06:23:50.506Z,15.50
2023-08-12T06:24:50.410Z,15.10
2023-08-12T06:25:50.407Z,14.90
2023-08-12T06:26:50.424Z,14.90
2023-08-12T06:27:50.413Z,16.20
2023-08-12T06:28:50.465Z,16.30
2023-08-12T06:29:50.425Z,15.80
2023-08-12T06:30:50.475Z,15.80
2023-08-12T06:31:50.496Z,15.60
2023-08-12T06:32:50.475Z,15.20
2023-08-12T06:33:50.522Z,14.90
2023-08-12T06:34:50.426Z,15.50
2023-08-12T06:35:51.368Z,15.50
2023-08-12T06:36:50.428Z,15.80
2023-08-12T06:37:50.428Z,15.20
2023-08-12T06:38:50.538Z,14.80
2023-08-12T06:39:50.452Z,15.50
2023-08-12T06:40:50.432Z,15.70
2023-08-12T06:41:50.435Z,15.60
2023-08-12T06:42:50.437Z,15.20
2023-08-12T06:43:50.535Z,15.60
2023-08-12T06:44:50.442Z,16.20
2023-08-12T06:45:50.550Z,15.50
2023-08-12T06:46:50.445Z,15.30
2023-08-12T06:47:50.485Z,15.50
2023-08-12T06:48:50.597Z,15.00
2023-08-12T06:49:50.445Z,15.40
2023-08-12T06:50:50.449Z,15.70
2023-08-12T06:51:50.449Z,15.80
2023-08-12T06:52:50.455Z,15.50
2023-08-12T06:53:50.603Z,15.10
2023-08-12T06:54:50.464Z,15.60
2023-08-12T06:55:50.458Z,15.70
2023-08-12T06:56:50.471Z,15.30
2023-08-12T06:57:50.483Z,15.00
2023-08-12T06:58:50.471Z,16.20
2023-08-12T06:59:50.459Z,16.50
2023-08-12T07:00:50.484Z,16.30
2023-08-12T07:01:50.462Z,16.60
2023-08-12T07:02:50.485Z,16.70
2023-08-12T07:03:50.514Z,16.30
2023-08-12T07:04:50.478Z,16.80
2023-08-12T07:05:50.473Z,17.10
2023-08-12T07:06:50.474Z,16.80
2023-08-12T07:07:50.474Z,16.80
2023-08-12T07:08:50.473Z,16.80
2023-08-12T07:09:50.482Z,17.10
2023-08-12T07:10:50.493Z,17.50
2023-08-12T07:11:50.481Z,17.70
2023-08-12T07:12:50.482Z,16.10
2023-08-12T07:13:50.485Z,17.30
2023-08-12T07:14:50.484Z,16.50
2023-08-12T07:15:50.540Z,16.80
2023-08-12T07:16:50.487Z,17.90
2023-08-12T07:17:50.526Z,17.00
2023-08-12T07:18:50.491Z,16.90
2023-08-12T07:19:50.509Z,16.10
2023-08-12T07:20:50.515Z,17.20
2023-08-12T07:21:50.499Z,17.90
2023-08-12T07:22:50.567Z,18.80
2023-08-12T07:24:03.264Z,18.30
2023-08-12T07:24:50.499Z,18.60
2023-08-12T07:25:50.529Z,17.20
2023-08-12T07:26:50.499Z,18.00
2023-08-12T07:27:50.511Z,18.70
2023-08-12T07:28:50.504Z,18.60
2023-08-12T07:29:50.504Z,19.50
2023-08-12T07:30:50.581Z,18.50
2023-08-12T07:31:50.520Z,17.70
2023-08-12T07:32:50.545Z,17.30
2023-08-12T07:33:50.516Z,18.30
2023-08-12T07:34:50.522Z,18.00
2023-08-12T07:35:50.536Z,17.40
2023-08-12T07:36:50.518Z,17.40
2023-08-12T07:37:50.515Z,17.60
2023-08-12T07:38:50.525Z,17.30
2023-08-12T07:39:50.514Z,17.00
2023-08-12T07:40:50.523Z,17.60
2023-08-12T07:41:50.532Z,18.30
2023-08-12T07:42:50.524Z,18.00
2023-08-12T07:43:50.523Z,18.20
2023-08-12T07:44:50.546Z,17.70
2023-08-12T07:46:00.204Z,17.70
2023-08-12T07:46:50.533Z,17.70
2023-08-12T07:47:50.600Z,17.30
2023-08-12T07:48:50.542Z,17.30
2023-08-12T07:49:50.533Z,18.30
2023-08-12T07:50:50.547Z,17.00
2023-08-12T07:51:50.550Z,18.30
2023-08-12T07:52:50.541Z,16.50
2023-08-12T07:53:50.578Z,17.10
2023-08-12T07:54:50.547Z,17.30
2023-08-12T07:55:50.536Z,16.70
2023-08-12T07:56:50.546Z,16.70
2023-08-12T07:57:50.545Z,16.80
2023-08-12T07:58:50.546Z,17.00
2023-08-12T07:59:50.542Z,16.90
2023-08-12T08:00:50.546Z,17.00
2023-08-12T08:01:50.614Z,16.30
2023-08-12T08:02:50.579Z,17.50
2023-08-12T08:03:50.547Z,16.90
2023-08-12T08:04:50.644Z,17.60
2023-08-12T08:05:50.560Z,16.90
2023-08-12T08:06:51.777Z,17.10
2023-08-12T08:07:50.579Z,17.40
2023-08-12T08:08:50.558Z,16.90
2023-08-12T08:09:50.559Z,16.20
2023-08-12T08:10:50.560Z,16.30
2023-08-12T08:11:50.560Z,16.40
2023-08-12T08:12:50.563Z,16.80
2023-08-12T08:13:50.563Z,16.30
2023-08-12T08:14:50.564Z,14.80
2023-08-12T08:15:50.565Z,15.50
2023-08-12T08:16:50.658Z,14.40
2023-08-12T08:17:50.747Z,14.20
2023-08-12T08:18:50.571Z,14.70
2023-08-12T08:19:50.568Z,13.70
2023-08-12T08:20:50.582Z,14.10
2023-08-12T08:21:50.573Z,13.30
2023-08-12T08:22:50.577Z,13.10
2023-08-12T08:23:50.600Z,13.30
2023-08-12T08:24:50.581Z,12.80
2023-08-12T08:25:50.607Z,13.00
2023-08-12T08:26:50.582Z,12.60
2023-08-12T08:27:50.596Z,13.60
2023-08-12T08:28:50.603Z,13.20
2023-08-12T08:29:50.616Z,12.90
2023-08-12T08:30:50.649Z,12.40
2023-08-12T08:31:50.618Z,12.60
2023-08-12T08:32:50.657Z,13.60
2023-08-12T08:33:50.587Z,12.90
2023-08-12T08:34:50.609Z,12.60
2023-08-12T08:35:50.677Z,13.10
2023-08-12T08:36:52.484Z,12.60
2023-08-12T08:37:50.592Z,12.30
2023-08-12T08:38:50.596Z,12.70
2023-08-12T08:39:50.632Z,12.00
2023-08-12T08:40:50.599Z,12.00
2023-08-12T08:41:50.606Z,11.30
2023-08-12T08:42:50.600Z,11.10
2023-08-12T08:43:50.607Z,11.90
2023-08-12T08:44:50.605Z,11.60
2023-08-12T08:45:50.653Z,11.70
2023-08-12T08:46:50.606Z,11.50
2023-08-12T08:47:50.663Z,11.20
2023-08-12T08:48:50.611Z,11.70
2023-08-12T08:49:50.613Z,11.80
2023-08-12T08:50:50.624Z,11.60
2023-08-12T08:51:50.618Z,11.40
2023-08-12T08:52:50.615Z,11.70
2023-08-12T08:53:52.434Z,11.50
2023-08-12T08:54:53.268Z,11.20
2023-08-12T08:55:50.647Z,11.50
2023-08-12T08:56:51.510Z,11.50
2023-08-12T08:57:50.623Z,12.00
2023-08-12T08:58:50.628Z,11.30
2023-08-12T08:59:58.242Z,11.20
2023-08-12T09:00:50.637Z,11.20
2023-08-12T09:01:50.723Z,11.30
2023-08-12T09:02:50.670Z,10.70
2023-08-12T09:03:50.630Z,11.40
2023-08-12T09:04:50.662Z,10.60
2023-08-12T09:05:50.635Z,11.20
2023-08-12T09:06:50.649Z,11.20
2023-08-12T09:07:50.637Z,11.00
2023-08-12T09:08:50.642Z,11.20
2023-08-12T09:09:50.640Z,10.80
2023-08-12T09:10:50.641Z,10.50
2023-08-12T09:11:50.672Z,10.90
2023-08-12T09:12:50.666Z,11.00
2023-08-12T09:13:50.662Z,10.40
2023-08-12T09:14:50.652Z,10.40
2023-08-12T09:15:50.693Z,10.10
2023-08-12T09:16:50.670Z,9.70
2023-08-12T09:17:50.745Z,10.30
2023-08-12T09:18:50.657Z,10.20
2023-08-12T09:19:50.658Z,10.10
2023-08-12T09:20:50.660Z,10.00
2023-08-12T09:21:50.657Z,10.60
2023-08-12T09:22:50.659Z,10.00
2023-08-12T09:23:50.666Z,10.30
2023-08-12T09:24:50.661Z,10.60
2023-08-12T09:25:50.680Z,10.30
2023-08-12T09:26:50.672Z,10.60
2023-08-12T09:27:50.704Z,10.20
2023-08-12T09:28:50.791Z,10.50
2023-08-12T09:29:50.677Z,10.60
2023-08-12T09:30:50.673Z,10.80
2023-08-12T09:31:50.736Z,10.00
2023-08-12T09:32:50.721Z,10.70
2023-08-12T09:33:50.679Z,10.60
2023-08-12T09:34:50.683Z,10.20
2023-08-12T09:35:50.686Z,10.40
2023-08-12T09:36:50.685Z,10.60
2023-08-12T09:37:50.692Z,9.50
2023-08-12T09:38:50.686Z,9.80
2023-08-12T09:39:50.685Z,9.60
2023-08-12T09:40:50.694Z,9.80
2023-08-12T09:41:50.689Z,9.60
2023-08-12T09:42:50.694Z,9.60
2023-08-12T09:43:50.713Z,9.70
2023-08-12T09:44:50.694Z,9.50
2023-08-12T09:45:50.730Z,9.30
2023-08-12T09:46:50.697Z,9.00
2023-08-12T09:47:50.736Z,8.80
2023-08-12T09:48:50.701Z,9.10
2023-08-12T09:49:50.724Z,9.10
2023-08-12T09:50:50.703Z,8.90
2023-08-12T09:51:50.705Z,9.30
2023-08-12T09:52:50.705Z,8.60
2023-08-12T09:53:50.713Z,8.60
2023-08-12T09:54:50.708Z,8.50
2023-08-12T09:55:50.716Z,8.60
2023-08-12T09:56:50.709Z,8.50
2023-08-12T09:57:50.713Z,8.40
2023-08-12T09:58:50.717Z,8.00
2023-08-12T09:59:50.733Z,8.00
2023-08-12T10:00:50.716Z,8.40
2023-08-12T10:01:50.725Z,7.80
2023-08-12T10:02:50.794Z,7.80
2023-08-12T10:03:50.745Z,8.10
2023-08-12T10:04:50.723Z,7.60
2023-08-12T10:05:50.739Z,7.70
2023-08-12T10:06:50.732Z,7.10
2023-08-12T10:07:50.738Z,7.10
2023-08-12T10:08:50.731Z,6.60
2023-08-12T10:09:50.746Z,6.40
2023-08-12T10:11:03.114Z,6.30
2023-08-12T10:11:50.736Z,6.00
2023-08-12T10:12:50.748Z,6.20
2023-08-12T10:13:50.740Z,6.00
2023-08-12T10:14:50.749Z,8.00
2023-08-12T10:15:50.791Z,6.70
2023-08-12T10:16:50.745Z,5.80
2023-08-12T10:17:50.780Z,5.10
2023-08-12T10:18:50.746Z,5.40
2023-08-12T10:19:50.750Z,5.10
2023-08-12T10:20:50.748Z,5.10
2023-08-12T10:21:50.755Z,5.40
2023-08-12T10:22:50.754Z,5.00
2023-08-12T10:23:50.758Z,4.90
2023-08-12T10:24:50.760Z,5.30
2023-08-12T10:25:50.761Z,5.30
2023-08-12T10:26:50.759Z,5.50
2023-08-12T10:27:50.769Z,5.50
2023-08-12T10:28:52.962Z,5.40
2023-08-12T10:29:50.779Z,4.90
2023-08-12T10:30:50.772Z,4.90
2023-08-12T10:31:50.796Z,4.80
2023-08-12T10:32:50.794Z,5.20
2023-08-12T10:33:50.781Z,4.70
2023-08-12T10:34:50.772Z,4.70
2023-08-12T10:35:50.794Z,5.00
2023-08-12T10:37:01.380Z,4.80
2023-08-12T10:37:50.778Z,4.40
2023-08-12T10:38:50.775Z,4.60
2023-08-12T10:39:50.783Z,5.20
2023-08-12T10:40:50.793Z,4.80
2023-08-12T10:41:50.794Z,4.80
2023-08-12T10:42:50.790Z,4.60
2023-08-12T10:43:50.790Z,4.80
2023-08-12T10:44:50.786Z,5.00
2023-08-12T10:45:50.796Z,4.90
2023-08-12T10:46:50.838Z,4.60
2023-08-12T10:47:50.877Z,4.70
2023-08-12T10:48:50.798Z,4.80
2023-08-12T10:49:50.812Z,4.80
2023-08-12T10:50:50.797Z,4.90
2023-08-12T10:51:50.811Z,5.10
2023-08-12T10:52:50.796Z,5.00
2023-08-12T10:53:50.803Z,4.50
2023-08-12T10:54:50.804Z,5.00
2023-08-12T10:55:50.806Z,4.90
2023-08-12T10:56:50.812Z,4.90
2023-08-12T10:57:51.276Z,4.70
2023-08-12T10:58:50.811Z,5.60
2023-08-12T10:59:50.819Z,4.60
2023-08-12T11:00:50.861Z,4.40
2023-08-12T11:01:50.828Z,4.10
2023-08-12T11:02:50.852Z,4.60
2023-08-12T11:03:50.853Z,4.20
2023-08-12T11:04:50.820Z,4.60
2023-08-12T11:05:50.827Z,4.10
2023-08-12T11:06:50.824Z,4.20
2023-08-12T11:07:50.851Z,4.30
2023-08-12T11:08:50.830Z,4.60
2023-08-12T11:09:50.832Z,4.70
2023-08-12T11:10:50.843Z,4.70
2023-08-12T11:11:50.833Z,4.40
2023-08-12T11:12:50.839Z,4.50
2023-08-12T11:13:50.840Z,4.50
2023-08-12T11:14:50.843Z,4.30
2023-08-12T11:15:50.855Z,4.10
2023-08-12T11:16:51.359Z,4.00
2023-08-12T11:17:50.927Z,4.50
2023-08-12T11:18:50.849Z,4.50
2023-08-12T11:19:50.867Z,4.40
2023-08-12T11:20:50.851Z,4.30
2023-08-12T11:21:50.852Z,4.30
2023-08-12T11:22:50.850Z,4.10
2023-08-12T11:23:50.853Z,4.20
2023-08-12T11:24:50.850Z,4.00
2023-08-12T11:25:50.857Z,4.20
2023-08-12T11:26:50.862Z,4.20
2023-08-12T11:27:50.865Z,4.40
2023-08-12T11:28:50.862Z,4.30
2023-08-12T11:29:50.873Z,4.40
2023-08-12T11:30:50.876Z,4.90
2023-08-12T11:31:50.874Z,4.70
2023-08-12T11:32:50.925Z,5.10
2023-08-12T11:33:50.879Z,4.90
2023-08-12T11:34:50.876Z,4.80
2023-08-12T11:35:50.890Z,4.70
2023-08-12T11:36:50.874Z,5.00
2023-08-12T11:37:50.884Z,4.40
2023-08-12T11:38:50.875Z,4.60
2023-08-12T11:39:50.878Z,4.30
2023-08-12T11:40:50.880Z,4.50
2023-08-12T11:41:50.876Z,4.60
2023-08-12T11:42:50.881Z,4.20
2023-08-12T11:43:50.880Z,4.20
2023-08-12T11:44:50.882Z,4.10
2023-08-12T11:45:50.891Z,4.00
2023-08-12T11:46:50.886Z,4.00
2023-08-12T11:47:50.916Z,4.40
2023-08-12T11:48:52.024Z,4.10
2023-08-12T11:49:50.902Z,3.70
2023-08-12T11:50:50.890Z,3.90
2023-08-12T11:51:50.973Z,3.90
2023-08-12T11:52:50.897Z,3.80
2023-08-12T11:53:50.902Z,4.10
2023-08-12T11:54:50.897Z,3.60
2023-08-12T11:55:50.900Z,3.80
2023-08-12T11:56:50.899Z,3.90
2023-08-12T11:57:50.904Z,3.90
2023-08-12T11:58:53.638Z,3.40
2023-08-12T11:59:50.913Z,3.80
2023-08-12T12:00:50.944Z,3.80
2023-08-12T12:01:51.018Z,3.60
2023-08-12T12:02:50.961Z,3.50
2023-08-12T12:03:50.952Z,4.00
2023-08-12T12:04:50.912Z,3.60
2023-08-12T12:05:50.919Z,3.70
2023-08-12T12:06:50.952Z,3.90
2023-08-12T12:07:50.940Z,4.00
2023-08-12T12:08:50.924Z,3.70
2023-08-12T12:09:50.923Z,3.60
2023-08-12T12:10:50.927Z,3.50
2023-08-12T12:11:50.931Z,3.80
2023-08-12T12:12:50.931Z,4.00
2023-08-12T12:13:50.935Z,4.20
2023-08-12T12:14:50.937Z,3.80
2023-08-12T12:15:50.936Z,3.90
2023-08-12T12:16:51.002Z,3.80
2023-08-12T12:17:51.012Z,3.70
2023-08-12T12:18:50.947Z,4.00
2023-08-12T12:19:50.943Z,3.80
2023-08-12T12:20:50.950Z,4.00
2023-08-12T12:21:50.951Z,3.90
2023-08-12T12:22:50.945Z,4.00
2023-08-12T12:23:50.972Z,3.80
2023-08-12T12:24:50.950Z,4.10
2023-08-12T12:25:50.953Z,4.00
2023-08-12T12:26:50.968Z,4.30
2023-08-12T12:27:50.957Z,4.00
2023-08-12T12:28:50.959Z,4.20
2023-08-12T12:29:50.963Z,4.10
2023-08-12T12:30:50.990Z,3.90
2023-08-12T12:31:50.963Z,4.10
2023-08-12T12:32:51.012Z,4.00
2023-08-12T12:33:50.979Z,3.80
2023-08-12T12:34:50.972Z,3.70
2023-08-12T12:35:57.283Z,3.90
2023-08-12T12:36:50.988Z,3.90
2023-08-12T12:37:50.976Z,3.40
2023-08-12T12:38:50.991Z,3.70
2023-08-12T12:39:51.022Z,3.60
2023-08-12T12:40:50.988Z,3.90
2023-08-12T12:41:51.004Z,3.60
2023-08-12T12:42:50.984Z,3.90
2023-08-12T12:43:50.984Z,4.10
2023-08-12T12:44:50.985Z,4.00
2023-08-12T12:45:51.018Z,4.00
2023-08-12T12:46:50.991Z,3.90
2023-08-12T12:47:51.044Z,3.90
2023-08-12T12:48:50.990Z,3.80
2023-08-12T12:49:51.013Z,3.60
2023-08-12T12:50:50.995Z,3.60
2023-08-12T12:51:51.004Z,3.20
2023-08-12T12:52:51.001Z,3.30
2023-08-12T12:53:51.002Z,3.20
2023-08-12T12:54:51.013Z,3.10
2023-08-12T12:55:51.029Z,3.10
2023-08-12T12:56:51.055Z,3.40
2023-08-12T12:57:51.019Z,3.30
2023-08-12T12:58:51.029Z,3.50
2023-08-12T12:59:51.048Z,3.60